createdAt,value
2018-02-14T00:00:17.591Z,0.00
2018-02-14T00:01:17.579Z,0.00
2018-02-14T00:02:17.565Z,0.00
2018-02-14T00:03:17.562Z,0.00
2018-02-14T00:04:17.533Z,0.00
2018-02-14T00:05:17.525Z,0.00
2018-02-14T00:06:17.505Z,0.00
2018-02-14T00:07:17.491Z,0.00
2018-02-14T00:08:17.477Z,0.00
2018-02-14T00:09:17.480Z,0.00
2018-02-14T00:10:17.463Z,0.00
2018-02-14T00:11:17.434Z,0.00
2018-02-14T00:12:17.427Z,0.00
2018-02-14T00:13:17.404Z,0.00
2018-02-14T00:14:17.420Z,0.00
2018-02-14T00:15:17.390Z,0.00
2018-02-14T00:16:17.378Z,0.00
2018-02-14T00:17:17.348Z,0.00
2018-02-14T00:18:17.332Z,0.00
2018-02-14T00:19:17.322Z,0.00
2018-02-14T00:20:17.307Z,0.00
2018-02-14T00:21:17.286Z,0.00
2018-02-14T00:22:17.275Z,0.00
2018-02-14T00:23:17.258Z,0.00
2018-02-14T00:24:17.249Z,0.00
2018-02-14T00:25:17.230Z,0.00
2018-02-14T00:26:17.215Z,0.00
2018-02-14T00:27:17.198Z,0.00
2018-02-14T00:28:17.191Z,0.00
2018-02-14T00:29:17.172Z,0.00
2018-02-14T00:30:17.179Z,0.00
2018-02-14T00:31:17.146Z,0.00
2018-02-14T00:32:17.136Z,0.00
2018-02-14T00:33:17.157Z,0.00
2018-02-14T00:34:17.104Z,0.00
2018-02-14T00:35:17.086Z,0.00
2018-02-14T00:36:17.072Z,0.00
2018-02-14T00:37:17.073Z,0.00
2018-02-14T00:38:17.048Z,0.00
2018-02-14T00:39:17.026Z,0.00
2018-02-14T00:40:17.012Z,0.00
2018-02-14T00:41:16.993Z,0.00
2018-02-14T00:42:16.979Z,0.00
2018-02-14T00:43:17.050Z,0.00
2018-02-14T00:44:16.967Z,0.00
2018-02-14T00:45:16.963Z,0.00
2018-02-14T00:46:16.933Z,0.00
2018-02-14T00:47:16.916Z,0.00
2018-02-14T00:48:16.892Z,0.00
2018-02-14T00:49:16.879Z,0.00
2018-02-14T00:50:16.869Z,0.00
2018-02-14T00:51:16.871Z,0.00
2018-02-14T00:52:16.839Z,0.00
2018-02-14T00:53:16.848Z,0.00
2018-02-14T00:54:16.803Z,0.00
2018-02-14T00:55:16.810Z,0.00
2018-02-14T00:56:16.789Z,0.00
2018-02-14T00:57:16.772Z,0.00
2018-02-14T00:58:16.754Z,0.00
2018-02-14T00:59:16.740Z,0.00
2018-02-14T01:00:16.716Z,0.00
2018-02-14T01:01:16.727Z,0.00
2018-02-14T01:02:16.687Z,0.00
2018-02-14T01:03:16.676Z,0.00
2018-02-14T01:04:16.662Z,0.00
2018-02-14T01:05:16.653Z,0.00
2018-02-14T01:06:16.628Z,0.00
2018-02-14T01:07:16.615Z,0.00
2018-02-14T01:08:16.602Z,0.00
2018-02-14T01:09:16.581Z,0.00
2018-02-14T01:10:16.568Z,0.00
2018-02-14T01:11:16.571Z,0.00
2018-02-14T01:12:16.540Z,0.00
2018-02-14T01:13:16.527Z,0.00
2018-02-14T01:14:16.510Z,0.00
2018-02-14T01:15:16.498Z,0.00
2018-02-14T01:16:16.508Z,0.00
2018-02-14T01:17:16.465Z,0.00
2018-02-14T01:18:16.506Z,0.00
2018-02-14T01:19:17.354Z,0.00
2018-02-14T01:20:16.452Z,0.00
2018-02-14T01:21:16.412Z,0.00
2018-02-14T01:22:16.476Z,0.00
2018-02-14T01:23:16.382Z,0.00
2018-02-14T01:24:16.369Z,0.00
2018-02-14T01:25:16.378Z,0.00
2018-02-14T01:26:16.349Z,0.00
2018-02-14T01:27:16.325Z,0.00
2018-02-14T01:28:16.305Z,0.00
2018-02-14T01:29:16.302Z,0.00
2018-02-14T01:30:16.319Z,0.00
2018-02-14T01:31:16.846Z,0.00
2018-02-14T01:32:16.281Z,0.00
2018-02-14T01:33:16.230Z,0.00
2018-02-14T01:34:16.214Z,0.00
2018-02-14T01:35:16.213Z,0.00
2018-02-14T01:36:16.187Z,0.00
2018-02-14T01:37:16.206Z,0.00
2018-02-14T01:38:16.196Z,0.00
2018-02-14T01:39:16.148Z,0.00
2018-02-14T01:40:16.129Z,0.00
2018-02-14T01:41:16.110Z,0.00
2018-02-14T01:42:16.101Z,0.00
2018-02-14T01:43:16.085Z,0.00
2018-02-14T01:44:16.069Z,0.00
2018-02-14T01:45:16.056Z,0.00
2018-02-14T01:46:16.040Z,0.00
2018-02-14T01:47:16.032Z,0.00
2018-02-14T01:48:16.047Z,0.00
2018-02-14T01:49:16.003Z,0.00
2018-02-14T01:50:16.012Z,0.00
2018-02-14T01:51:15.975Z,0.00
2018-02-14T01:52:15.955Z,0.00
2018-02-14T01:53:15.956Z,0.00
2018-02-14T01:54:15.923Z,0.00
2018-02-14T01:55:15.917Z,0.00
2018-02-14T01:56:15.905Z,0.00
2018-02-14T01:57:15.897Z,0.00
2018-02-14T01:58:15.862Z,0.00
2018-02-14T01:59:15.843Z,0.00
2018-02-14T02:00:15.833Z,0.00
2018-02-14T02:01:15.840Z,0.00
2018-02-14T02:02:15.800Z,0.00
2018-02-14T02:03:16.334Z,0.00
2018-02-14T02:04:15.942Z,0.00
2018-02-14T02:05:15.825Z,0.00
2018-02-14T02:06:15.750Z,0.00
2018-02-14T02:07:15.723Z,0.00
2018-02-14T02:08:15.708Z,0.00
2018-02-14T02:09:15.703Z,0.00
2018-02-14T02:10:15.682Z,0.00
2018-02-14T02:11:15.671Z,0.00
2018-02-14T02:12:15.649Z,0.00
2018-02-14T02:13:15.652Z,0.00
2018-02-14T02:14:15.624Z,0.00
2018-02-14T02:15:15.715Z,0.00
2018-02-14T02:16:15.593Z,0.00
2018-02-14T02:17:15.576Z,0.00
2018-02-14T02:18:15.590Z,0.00
2018-02-14T02:19:15.650Z,0.00
2018-02-14T02:20:15.535Z,0.00
2018-02-14T02:21:15.521Z,0.00
2018-02-14T02:22:15.502Z,0.00
2018-02-14T02:23:15.491Z,0.00
2018-02-14T02:24:15.485Z,0.00
2018-02-14T02:25:15.456Z,0.00
2018-02-14T02:26:15.447Z,0.00
2018-02-14T02:27:15.423Z,0.00
2018-02-14T02:28:15.410Z,0.00
2018-02-14T02:29:15.452Z,0.00
2018-02-14T02:30:15.383Z,0.00
2018-02-14T02:31:15.392Z,0.00
2018-02-14T02:32:15.362Z,0.00
2018-02-14T02:33:15.337Z,0.00
2018-02-14T02:34:15.322Z,0.00
2018-02-14T02:35:15.314Z,0.00
2018-02-14T02:36:15.292Z,0.00
2018-02-14T02:37:15.276Z,0.00
2018-02-14T02:38:15.269Z,0.00
2018-02-14T02:39:15.248Z,0.00
2018-02-14T02:40:15.229Z,0.00
2018-02-14T02:41:15.216Z,0.00
2018-02-14T02:42:15.205Z,0.00
2018-02-14T02:43:15.190Z,0.00
2018-02-14T02:44:15.168Z,0.00
2018-02-14T02:45:15.155Z,0.00
2018-02-14T02:46:15.139Z,0.00
2018-02-14T02:47:15.125Z,0.00
2018-02-14T02:48:15.110Z,0.00
2018-02-14T02:49:15.093Z,0.00
2018-02-14T02:50:15.084Z,0.00
2018-02-14T02:51:15.070Z,0.00
2018-02-14T02:52:15.056Z,0.00
2018-02-14T02:53:15.031Z,0.00
2018-02-14T02:54:15.019Z,0.00
2018-02-14T02:55:15.004Z,0.00
2018-02-14T02:56:14.995Z,0.00
2018-02-14T02:57:14.972Z,0.00
2018-02-14T02:58:14.958Z,0.00
2018-02-14T02:59:14.943Z,0.00
2018-02-14T03:00:14.928Z,0.00
2018-02-14T03:01:14.927Z,0.00
2018-02-14T03:02:14.904Z,0.00
2018-02-14T03:03:14.884Z,0.00
2018-02-14T03:04:14.877Z,0.00
2018-02-14T03:05:14.856Z,0.00
2018-02-14T03:06:14.841Z,0.00
2018-02-14T03:07:14.827Z,0.00
2018-02-14T03:08:14.809Z,0.00
2018-02-14T03:09:14.791Z,0.00
2018-02-14T03:10:14.780Z,0.00
2018-02-14T03:11:14.763Z,0.00
2018-02-14T03:12:14.747Z,0.00
2018-02-14T03:13:14.729Z,0.00
2018-02-14T03:14:14.714Z,0.00
2018-02-14T03:15:14.712Z,0.00
2018-02-14T03:16:14.690Z,0.00
2018-02-14T03:17:14.671Z,0.00
2018-02-14T03:18:14.655Z,0.00
2018-02-14T03:19:14.641Z,0.00
2018-02-14T03:20:14.619Z,0.00
2018-02-14T03:21:14.620Z,0.00
2018-02-14T03:22:14.600Z,0.00
2018-02-14T03:23:14.581Z,0.00
2018-02-14T03:24:14.576Z,0.00
2018-02-14T03:25:14.549Z,0.00
2018-02-14T03:26:14.532Z,0.00
2018-02-14T03:27:14.515Z,0.00
2018-02-14T03:28:14.510Z,0.00
2018-02-14T03:29:14.491Z,0.00
2018-02-14T03:30:14.472Z,0.00
2018-02-14T03:31:14.458Z,0.00
2018-02-14T03:32:14.442Z,0.00
2018-02-14T03:33:14.447Z,0.00
2018-02-14T03:34:14.407Z,0.00
2018-02-14T03:35:14.395Z,0.00
2018-02-14T03:36:14.388Z,0.00
2018-02-14T03:37:14.366Z,0.00
2018-02-14T03:38:14.349Z,0.00
2018-02-14T03:39:14.335Z,0.00
2018-02-14T03:40:14.317Z,0.00
2018-02-14T03:41:14.303Z,0.00
2018-02-14T03:42:14.289Z,0.00
2018-02-14T03:43:14.283Z,0.00
2018-02-14T03:44:14.257Z,0.00
2018-02-14T03:45:14.238Z,0.00
2018-02-14T03:46:14.229Z,0.00
2018-02-14T03:47:14.211Z,0.00
2018-02-14T03:48:14.213Z,0.00
2018-02-14T03:49:14.180Z,0.00
2018-02-14T03:50:14.169Z,0.00
2018-02-14T03:51:14.157Z,0.00
2018-02-14T03:52:14.148Z,0.00
2018-02-14T03:53:14.120Z,0.00
2018-02-14T03:54:14.101Z,0.00
2018-02-14T03:55:14.086Z,0.00
2018-02-14T03:56:14.072Z,0.00
2018-02-14T03:57:14.058Z,0.00
2018-02-14T03:58:14.044Z,0.00
2018-02-14T03:59:14.028Z,0.00
2018-02-14T04:00:14.011Z,0.00
2018-02-14T04:01:14.001Z,0.00
2018-02-14T04:04:03.730Z,0.00
2018-02-14T04:04:47.586Z,0.00
2018-02-14T04:06:41.605Z,0.00
2018-02-14T04:07:41.132Z,0.00
2018-02-14T04:09:36.025Z,0.00
2018-02-14T04:10:35.950Z,0.00
2018-02-14T04:12:29.635Z,0.00
2018-02-14T04:13:29.577Z,0.00
2018-02-14T04:15:23.309Z,0.00
2018-02-14T04:16:23.196Z,0.00
2018-02-14T04:18:16.899Z,0.00
2018-02-14T04:19:16.790Z,0.00
2018-02-14T04:21:12.432Z,0.00
2018-02-14T04:22:10.260Z,0.00
2018-02-14T04:24:03.832Z,0.00
2018-02-14T04:25:03.784Z,0.00
2018-02-14T04:26:58.200Z,0.00
2018-02-14T04:27:57.435Z,0.00
2018-02-14T04:29:52.008Z,0.00
2018-02-14T04:30:52.024Z,0.00
2018-02-14T04:32:46.430Z,0.00
2018-02-14T04:33:46.383Z,0.00
2018-02-14T04:35:40.030Z,0.00
2018-02-14T04:36:39.992Z,0.00
2018-02-14T04:38:33.595Z,0.00
2018-02-14T04:39:33.543Z,0.00
2018-02-14T04:41:29.887Z,0.00
2018-02-14T04:42:29.828Z,0.00
2018-02-14T04:44:24.132Z,0.00
2018-02-14T04:45:24.084Z,0.00
2018-02-14T04:47:18.517Z,0.00
2018-02-14T04:48:17.707Z,0.00
2018-02-14T04:50:11.413Z,0.00
2018-02-14T04:51:11.370Z,0.00
2018-02-14T04:53:05.021Z,0.00
2018-02-14T04:54:04.973Z,0.00
2018-02-14T04:55:58.716Z,0.00
2018-02-14T04:56:58.664Z,0.00
2018-02-14T04:58:52.772Z,0.00
2018-02-14T04:59:52.752Z,0.00
2018-02-14T05:01:46.532Z,0.00
2018-02-14T05:02:46.496Z,0.00
2018-02-14T05:04:40.189Z,0.00
2018-02-14T05:05:40.151Z,0.00
2018-02-14T05:07:33.897Z,0.00
2018-02-14T05:08:33.853Z,0.00
2018-02-14T05:10:27.527Z,0.00
2018-02-14T05:11:27.485Z,0.00
2018-02-14T05:13:21.143Z,0.00
2018-02-14T05:14:21.071Z,0.00
2018-02-14T05:16:15.137Z,0.00
2018-02-14T05:17:14.620Z,0.00
2018-02-14T05:19:08.239Z,0.00
2018-02-14T05:20:08.193Z,0.00
2018-02-14T05:22:02.548Z,0.00
2018-02-14T05:23:02.509Z,0.00
2018-02-14T05:24:58.380Z,0.00
2018-02-14T05:25:58.337Z,0.00
2018-02-14T05:27:52.782Z,0.00
2018-02-14T05:28:52.716Z,0.00
2018-02-14T05:30:46.484Z,0.00
2018-02-14T05:31:46.403Z,0.00
2018-02-14T05:33:40.073Z,0.00
2018-02-14T05:34:40.039Z,0.00
2018-02-14T05:36:34.356Z,0.00
2018-02-14T05:37:34.300Z,0.00
2018-02-14T05:39:29.650Z,0.00
2018-02-14T05:40:29.609Z,0.00
2018-02-14T05:42:24.017Z,0.00
2018-02-14T05:43:23.996Z,0.00
2018-02-14T05:45:17.767Z,0.00
2018-02-14T05:46:17.762Z,0.00
2018-02-14T05:48:11.453Z,0.00
2018-02-14T05:49:11.361Z,0.00
2018-02-14T05:51:05.118Z,0.00
2018-02-14T05:52:05.051Z,0.00
2018-02-14T05:54:02.091Z,0.00
2018-02-14T05:55:02.050Z,0.00
2018-02-14T05:56:02.059Z,0.00
2018-02-14T05:57:02.000Z,0.00
2018-02-14T05:58:01.998Z,0.00
2018-02-14T05:59:01.970Z,0.00
2018-02-14T06:00:01.965Z,0.00
2018-02-14T06:01:01.939Z,0.00
2018-02-14T06:02:01.936Z,0.00
2018-02-14T06:03:01.909Z,0.00
2018-02-14T06:04:01.916Z,0.00
2018-02-14T06:05:01.883Z,0.00
2018-02-14T06:06:01.874Z,0.00
2018-02-14T06:07:01.844Z,0.00
2018-02-14T06:08:01.839Z,0.00
2018-02-14T06:09:01.823Z,0.00
2018-02-14T06:10:01.807Z,0.00
2018-02-14T06:11:01.859Z,0.00
2018-02-14T06:12:01.765Z,0.00
2018-02-14T06:13:01.768Z,0.00
2018-02-14T06:14:01.733Z,0.00
2018-02-14T06:15:01.722Z,0.00
2018-02-14T06:16:01.705Z,0.00
2018-02-14T06:17:01.687Z,0.00
2018-02-14T06:18:01.669Z,0.00
2018-02-14T06:19:01.668Z,0.00
2018-02-14T06:20:01.639Z,0.00
2018-02-14T06:21:01.625Z,0.00
2018-02-14T06:22:01.622Z,0.00
2018-02-14T06:23:01.614Z,0.00
2018-02-14T06:24:01.592Z,0.00
2018-02-14T06:25:01.559Z,0.00
2018-02-14T06:26:01.556Z,0.00
2018-02-14T06:27:01.532Z,0.00
2018-02-14T06:28:01.513Z,0.00
2018-02-14T06:29:01.496Z,5.63
2018-02-14T06:30:01.485Z,5.63
2018-02-14T06:31:01.481Z,5.63
2018-02-14T06:32:01.479Z,5.63
2018-02-14T06:33:01.450Z,5.63
2018-02-14T06:34:01.431Z,5.63
2018-02-14T06:35:01.448Z,11.25
2018-02-14T06:36:01.389Z,11.25
2018-02-14T06:37:01.377Z,11.25
2018-02-14T06:38:01.368Z,11.25
2018-02-14T06:39:01.352Z,16.88
2018-02-14T06:40:01.343Z,16.88
2018-02-14T06:41:01.306Z,16.88
2018-02-14T06:42:01.309Z,22.50
2018-02-14T06:43:01.281Z,22.50
2018-02-14T06:44:01.285Z,28.13
2018-02-14T06:45:01.242Z,28.13
2018-02-14T06:46:01.242Z,28.13
2018-02-14T06:47:01.229Z,33.75
2018-02-14T06:48:01.208Z,33.75
2018-02-14T06:49:01.189Z,39.38
2018-02-14T06:50:01.172Z,45.00
2018-02-14T06:51:01.160Z,45.00
2018-02-14T06:52:01.157Z,50.63
2018-02-14T06:53:01.126Z,50.63
2018-02-14T06:54:01.101Z,56.25
2018-02-14T06:55:01.085Z,61.88
2018-02-14T06:56:01.084Z,61.88
2018-02-14T06:57:01.051Z,67.50
2018-02-14T06:58:01.043Z,73.13
2018-02-14T06:59:01.029Z,73.13
2018-02-14T07:00:01.977Z,78.75
2018-02-14T07:01:01.004Z,90.00
2018-02-14T07:02:00.971Z,118.13
2018-02-14T07:03:00.967Z,146.25
2018-02-14T07:04:00.939Z,213.75
2018-02-14T07:05:00.925Z,292.50
2018-02-14T07:06:00.909Z,315.00
2018-02-14T07:07:00.894Z,281.25
2018-02-14T07:08:00.876Z,264.38
2018-02-14T07:09:00.870Z,360.00
2018-02-14T07:10:00.843Z,410.63
2018-02-14T07:11:00.839Z,433.13
2018-02-14T07:12:00.820Z,371.25
2018-02-14T07:13:00.825Z,320.63
2018-02-14T07:14:00.783Z,225.00
2018-02-14T07:15:00.766Z,146.25
2018-02-14T07:16:00.761Z,146.25
2018-02-14T07:17:01.496Z,168.75
2018-02-14T07:18:00.719Z,180.00
2018-02-14T07:19:00.704Z,180.00
2018-02-14T07:20:00.688Z,202.50
2018-02-14T07:21:00.676Z,180.00
2018-02-14T07:22:00.664Z,208.13
2018-02-14T07:23:00.654Z,337.50
2018-02-14T07:24:00.643Z,545.63
2018-02-14T07:25:00.615Z,399.38
2018-02-14T07:26:00.613Z,219.38
2018-02-14T07:27:00.585Z,258.75
2018-02-14T07:28:00.574Z,241.88
2018-02-14T07:29:00.552Z,208.13
2018-02-14T07:30:00.549Z,208.13
2018-02-14T07:31:00.552Z,213.75
2018-02-14T07:32:00.526Z,399.38
2018-02-14T07:33:00.500Z,618.75
2018-02-14T07:34:00.484Z,461.25
2018-02-14T07:35:00.476Z,258.75
2018-02-14T07:36:00.458Z,247.50
2018-02-14T07:37:00.433Z,241.88
2018-02-14T07:38:00.415Z,253.13
2018-02-14T07:39:00.429Z,320.63
2018-02-14T07:40:00.397Z,838.13
2018-02-14T07:41:00.370Z,1248.75
2018-02-14T07:42:00.379Z,888.75
2018-02-14T07:43:00.373Z,472.50
2018-02-14T07:44:00.344Z,343.13
2018-02-14T07:45:00.323Z,433.13
2018-02-14T07:46:00.309Z,348.75
2018-02-14T07:47:00.295Z,303.75
2018-02-14T07:48:00.282Z,309.38
2018-02-14T07:49:00.262Z,292.50
2018-02-14T07:50:00.252Z,292.50
2018-02-14T07:51:00.237Z,388.13
2018-02-14T07:52:00.217Z,562.50
2018-02-14T07:53:00.207Z,540.00
2018-02-14T07:54:00.197Z,365.63
2018-02-14T07:55:00.170Z,315.00
2018-02-14T07:56:00.178Z,348.75
2018-02-14T07:57:00.151Z,376.88
2018-02-14T07:58:00.128Z,348.75
2018-02-14T07:59:00.109Z,371.25
2018-02-14T08:00:00.114Z,388.13
2018-02-14T08:01:00.078Z,348.75
2018-02-14T08:02:00.076Z,337.50
2018-02-14T08:03:00.065Z,343.13
2018-02-14T08:04:00.038Z,382.50
2018-02-14T08:05:00.060Z,444.38
2018-02-14T08:06:00.009Z,438.75
2018-02-14T08:07:00.017Z,376.88
2018-02-14T08:07:59.987Z,354.38
2018-02-14T08:08:59.966Z,365.63
2018-02-14T08:09:59.962Z,399.38
2018-02-14T08:10:59.947Z,416.25
2018-02-14T08:11:59.936Z,450.00
2018-02-14T08:12:59.910Z,472.50
2018-02-14T08:13:59.902Z,495.00
2018-02-14T08:14:59.881Z,438.75
2018-02-14T08:15:59.874Z,393.75
2018-02-14T08:16:59.848Z,421.88
2018-02-14T08:17:59.861Z,433.13
2018-02-14T08:18:59.846Z,433.13
2018-02-14T08:19:59.807Z,438.75
2018-02-14T08:20:59.842Z,410.63
2018-02-14T08:21:59.787Z,472.50
2018-02-14T08:22:59.767Z,461.25
2018-02-14T08:23:59.758Z,405.00
2018-02-14T08:24:59.747Z,472.50
2018-02-14T08:25:59.724Z,686.25
2018-02-14T08:26:59.707Z,855.00
2018-02-14T08:27:59.727Z,826.88
2018-02-14T08:28:59.693Z,838.13
2018-02-14T08:29:59.678Z,1136.25
2018-02-14T08:30:59.665Z,1186.88
2018-02-14T08:31:59.645Z,995.63
2018-02-14T08:32:59.639Z,900.00
2018-02-14T08:33:59.621Z,1012.50
2018-02-14T08:34:59.595Z,1220.63
2018-02-14T08:35:59.593Z,1417.50
2018-02-14T08:36:59.577Z,1333.13
2018-02-14T08:37:59.566Z,1411.88
2018-02-14T08:38:59.541Z,1513.13
2018-02-14T08:39:59.526Z,1338.75
2018-02-14T08:40:59.524Z,1479.38
2018-02-14T08:41:59.511Z,1636.88
2018-02-14T08:42:59.500Z,1816.88
2018-02-14T08:43:59.472Z,1845.00
2018-02-14T08:44:59.458Z,1715.63
2018-02-14T08:45:59.455Z,1608.75
2018-02-14T08:46:59.449Z,1440.00
2018-02-14T08:47:59.445Z,1389.38
2018-02-14T08:48:59.424Z,1423.13
2018-02-14T08:49:59.408Z,1305.00
2018-02-14T08:50:59.388Z,1530.00
2018-02-14T08:51:59.386Z,1940.63
2018-02-14T08:52:59.373Z,1794.38
2018-02-14T08:53:59.345Z,1980.00
2018-02-14T08:54:59.350Z,2233.13
2018-02-14T08:55:59.319Z,2385.00
2018-02-14T08:56:59.322Z,2576.25
2018-02-14T08:57:59.312Z,2565.00
2018-02-14T08:58:59.315Z,2475.00
2018-02-14T08:59:59.286Z,2722.50
2018-02-14T09:00:59.262Z,2733.75
2018-02-14T09:01:59.254Z,2851.88
2018-02-14T09:02:59.248Z,3228.75
2018-02-14T09:03:59.253Z,3363.75
2018-02-14T09:04:59.217Z,3307.50
2018-02-14T09:05:59.225Z,3330.00
2018-02-14T09:06:59.210Z,3386.25
2018-02-14T09:07:59.185Z,3510.00
2018-02-14T09:08:59.176Z,3341.25
2018-02-14T09:10:01.974Z,3110.63
2018-02-14T09:10:59.178Z,3268.13
2018-02-14T09:11:59.179Z,3481.88
2018-02-14T09:12:59.136Z,3397.50
2018-02-14T09:13:59.144Z,3178.13
2018-02-14T09:14:59.121Z,3031.88
2018-02-14T09:15:59.112Z,3015.00
2018-02-14T09:16:59.113Z,3088.13
2018-02-14T09:17:59.096Z,3116.25
2018-02-14T09:18:59.086Z,3082.50
2018-02-14T09:19:59.085Z,3009.38
2018-02-14T09:20:59.078Z,2885.63
2018-02-14T09:21:59.067Z,2823.75
2018-02-14T09:22:59.065Z,2981.25
2018-02-14T09:23:59.056Z,2818.13
2018-02-14T09:24:59.040Z,2778.75
2018-02-14T09:25:59.030Z,2705.63
2018-02-14T09:26:59.045Z,2536.88
2018-02-14T09:27:59.016Z,2418.75
2018-02-14T09:28:59.012Z,2503.13
2018-02-14T09:29:59.022Z,2491.88
2018-02-14T09:30:58.994Z,2491.88
2018-02-14T09:31:59.004Z,2418.75
2018-02-14T09:32:58.977Z,2323.13
2018-02-14T09:33:58.968Z,2334.38
2018-02-14T09:34:58.978Z,2385.00
2018-02-14T09:36:00.468Z,2508.75
2018-02-14T09:36:58.995Z,2497.50
2018-02-14T09:37:58.943Z,2418.75
2018-02-14T09:38:58.949Z,2413.13
2018-02-14T09:39:58.933Z,2328.75
2018-02-14T09:40:58.930Z,2272.50
2018-02-14T09:41:58.936Z,2244.38
2018-02-14T09:42:58.928Z,2193.75
2018-02-14T09:43:58.929Z,2188.13
2018-02-14T09:44:58.903Z,2250.00
2018-02-14T09:45:58.910Z,2182.50
2018-02-14T09:46:58.894Z,2137.50
2018-02-14T09:47:58.889Z,2086.88
2018-02-14T09:48:58.892Z,1963.13
2018-02-14T09:49:58.898Z,2058.75
2018-02-14T09:50:58.877Z,2126.25
2018-02-14T09:51:58.870Z,2171.25
2018-02-14T09:52:58.872Z,2176.88
2018-02-14T09:53:58.870Z,2053.13
2018-02-14T09:54:58.875Z,2036.25
2018-02-14T09:55:58.910Z,2075.63
2018-02-14T09:56:58.930Z,2041.88
2018-02-14T09:57:58.889Z,2025.00
2018-02-14T09:58:58.841Z,1996.88
2018-02-14T10:00:00.607Z,1980.00
2018-02-14T10:00:58.842Z,1963.13
2018-02-14T10:01:58.909Z,1963.13
2018-02-14T10:02:58.826Z,2036.25
2018-02-14T10:03:58.826Z,2092.50
2018-02-14T10:04:58.865Z,2098.13
2018-02-14T10:05:58.816Z,2137.50
2018-02-14T10:06:58.837Z,2289.38
2018-02-14T10:07:58.799Z,2351.25
2018-02-14T10:08:58.806Z,2401.88
2018-02-14T10:09:58.874Z,2576.25
2018-02-14T10:10:58.834Z,2587.50
2018-02-14T10:11:58.850Z,2632.50
2018-02-14T10:12:58.782Z,2773.13
2018-02-14T10:13:58.778Z,2767.50
2018-02-14T10:14:58.784Z,2908.13
2018-02-14T10:15:58.788Z,2829.38
2018-02-14T10:16:58.815Z,2638.13
2018-02-14T10:17:58.834Z,2632.50
2018-02-14T10:18:58.758Z,2649.38
2018-02-14T10:19:58.770Z,2857.50
2018-02-14T10:20:58.766Z,2964.38
2018-02-14T10:21:58.752Z,2863.13
2018-02-14T10:22:58.750Z,2795.63
2018-02-14T10:23:58.796Z,2745.00
2018-02-14T10:24:58.745Z,2598.75
2018-02-14T10:25:58.756Z,2671.88
2018-02-14T10:26:58.738Z,2829.38
2018-02-14T10:27:58.733Z,2925.00
2018-02-14T10:28:59.502Z,2953.13
2018-02-14T10:29:58.733Z,2953.13
2018-02-14T10:30:58.725Z,2930.63
2018-02-14T10:31:58.719Z,2992.50
2018-02-14T10:32:58.732Z,2986.88
2018-02-14T10:33:58.735Z,2936.25
2018-02-14T10:34:58.731Z,2863.13
2018-02-14T10:35:58.729Z,2812.50
2018-02-14T10:36:58.843Z,2868.75
2018-02-14T10:37:58.727Z,3020.63
2018-02-14T10:38:58.719Z,3178.13
2018-02-14T10:39:58.718Z,3352.50
2018-02-14T10:40:58.696Z,3487.50
2018-02-14T10:41:58.715Z,3425.63
2018-02-14T10:42:58.706Z,3436.88
2018-02-14T10:43:58.699Z,3442.50
2018-02-14T10:44:58.691Z,3532.50
2018-02-14T10:45:58.682Z,3425.63
2018-02-14T10:46:58.716Z,3144.38
2018-02-14T10:47:58.692Z,3110.63
2018-02-14T10:48:58.681Z,3099.38
2018-02-14T10:49:58.673Z,3110.63
2018-02-14T10:50:58.682Z,3262.50
2018-02-14T10:51:58.668Z,3285.00
2018-02-14T10:52:58.676Z,3262.50
2018-02-14T10:53:58.659Z,3217.50
2018-02-14T10:54:58.671Z,3217.50
2018-02-14T10:55:58.659Z,3071.25
2018-02-14T10:56:58.665Z,3082.50
2018-02-14T10:57:58.668Z,3217.50
2018-02-14T10:58:58.662Z,3313.13
2018-02-14T10:59:58.643Z,3234.38
2018-02-14T11:00:58.646Z,3144.38
2018-02-14T11:01:58.652Z,3144.38
2018-02-14T11:02:58.701Z,3200.63
2018-02-14T11:03:58.639Z,3268.13
2018-02-14T11:04:58.642Z,3301.88
2018-02-14T11:05:58.631Z,3245.63
2018-02-14T11:06:58.637Z,3251.25
2018-02-14T11:07:58.627Z,3453.75
2018-02-14T11:08:58.648Z,3532.50
2018-02-14T11:09:58.651Z,3577.50
2018-02-14T11:10:58.661Z,3588.75
2018-02-14T11:11:58.612Z,3481.88
2018-02-14T11:12:58.690Z,3256.88
2018-02-14T11:13:58.608Z,3183.75
2018-02-14T11:14:58.621Z,3290.63
2018-02-14T11:15:58.615Z,3341.25
2018-02-14T11:16:58.604Z,3363.75
2018-02-14T11:17:58.625Z,3397.50
2018-02-14T11:18:58.677Z,3352.50
2018-02-14T11:19:58.592Z,3268.13
2018-02-14T11:20:58.588Z,3217.50
2018-02-14T11:21:58.602Z,3138.75
2018-02-14T11:22:58.587Z,3076.88
2018-02-14T11:23:58.582Z,3020.63
2018-02-14T11:24:58.582Z,3256.88
2018-02-14T11:25:58.581Z,3470.63
2018-02-14T11:26:58.577Z,3526.88
2018-02-14T11:27:58.632Z,3408.75
2018-02-14T11:28:58.586Z,3296.25
2018-02-14T11:29:58.579Z,3324.38
2018-02-14T11:30:58.569Z,3358.13
2018-02-14T11:31:58.561Z,3296.25
2018-02-14T11:32:58.575Z,3330.00
2018-02-14T11:33:58.605Z,3313.13
2018-02-14T11:34:58.586Z,3369.38
2018-02-14T11:35:58.564Z,3425.63
2018-02-14T11:36:58.586Z,3335.63
2018-02-14T11:37:58.558Z,3301.88
2018-02-14T11:38:58.558Z,3363.75
2018-02-14T11:39:58.580Z,3380.63
2018-02-14T11:40:58.546Z,3408.75
2018-02-14T11:41:58.562Z,3386.25
2018-02-14T11:42:58.552Z,3296.25
2018-02-14T11:43:58.551Z,3217.50
2018-02-14T11:44:58.538Z,3296.25
2018-02-14T11:45:58.532Z,3352.50
2018-02-14T11:46:58.541Z,3358.13
2018-02-14T11:47:58.536Z,3369.38
2018-02-14T11:48:58.534Z,3335.63
2018-02-14T11:49:58.530Z,3465.00
2018-02-14T11:50:58.515Z,3538.13
2018-02-14T11:51:58.512Z,3442.50
2018-02-14T11:52:58.511Z,3352.50
2018-02-14T11:53:58.507Z,3380.63
2018-02-14T11:54:58.501Z,3313.13
2018-02-14T11:55:58.510Z,3262.50
2018-02-14T11:56:58.494Z,3127.50
2018-02-14T11:57:58.495Z,3043.13
2018-02-14T11:58:58.526Z,2936.25
2018-02-14T11:59:58.514Z,2823.75
2018-02-14T12:00:58.500Z,2835.00
2018-02-14T12:01:58.590Z,2880.00
2018-02-14T12:02:58.474Z,3020.63
2018-02-14T12:03:58.476Z,3076.88
2018-02-14T12:04:58.482Z,3003.75
2018-02-14T12:05:58.470Z,3003.75
2018-02-14T12:06:58.497Z,2981.25
2018-02-14T12:07:58.464Z,2908.13
2018-02-14T12:08:58.466Z,2885.63
2018-02-14T12:09:58.450Z,2930.63
2018-02-14T12:10:58.448Z,2958.75
2018-02-14T12:11:58.492Z,2998.13
2018-02-14T12:12:58.454Z,2919.38
2018-02-14T12:13:58.432Z,2857.50
2018-02-14T12:14:58.430Z,2840.63
2018-02-14T12:15:58.425Z,2812.50
2018-02-14T12:16:58.438Z,2885.63
2018-02-14T12:17:58.446Z,2823.75
2018-02-14T12:18:58.545Z,2812.50
2018-02-14T12:19:58.414Z,2823.75
2018-02-14T12:20:58.406Z,2851.88
2018-02-14T12:21:58.406Z,2823.75
2018-02-14T12:22:58.405Z,2835.00
2018-02-14T12:23:58.394Z,2919.38
2018-02-14T12:24:58.392Z,2891.25
2018-02-14T12:25:58.399Z,2773.13
2018-02-14T12:26:58.404Z,2733.75
2018-02-14T12:27:58.377Z,2733.75
2018-02-14T12:28:58.381Z,2688.75
2018-02-14T12:29:58.386Z,2750.63
2018-02-14T12:30:58.365Z,2818.13
2018-02-14T12:31:58.366Z,2722.50
2018-02-14T12:32:58.362Z,2604.38
2018-02-14T12:33:58.358Z,2610.00
2018-02-14T12:34:58.351Z,2677.50
2018-02-14T12:35:58.358Z,2587.50
2018-02-14T12:36:58.344Z,2570.63
2018-02-14T12:37:58.341Z,2638.13
2018-02-14T12:38:58.675Z,2638.13
2018-02-14T12:39:58.338Z,2604.38
2018-02-14T12:40:58.340Z,2480.63
2018-02-14T12:41:58.331Z,2407.50
2018-02-14T12:42:58.317Z,2463.75
2018-02-14T12:43:58.313Z,2525.63
2018-02-14T12:44:58.311Z,2486.25
2018-02-14T12:45:58.319Z,2503.13
2018-02-14T12:46:58.305Z,2475.00
2018-02-14T12:47:58.339Z,2452.50
2018-02-14T12:48:58.302Z,2390.63
2018-02-14T12:49:58.333Z,2396.25
2018-02-14T12:50:58.315Z,2373.75
2018-02-14T12:51:58.290Z,2373.75
2018-02-14T12:52:58.281Z,2317.50
2018-02-14T12:53:58.345Z,2266.88
2018-02-14T12:54:58.334Z,2340.00
2018-02-14T12:55:58.277Z,2345.63
2018-02-14T12:56:58.293Z,2278.13
2018-02-14T12:57:58.266Z,2272.50
2018-02-14T12:58:58.250Z,2283.75
2018-02-14T12:59:58.269Z,2266.88
2018-02-14T13:00:58.239Z,2261.25
2018-02-14T13:01:58.233Z,2233.13
2018-02-14T13:02:58.237Z,2193.75
2018-02-14T13:03:58.247Z,2126.25
2018-02-14T13:04:58.222Z,2098.13
2018-02-14T13:05:58.233Z,2064.38
2018-02-14T13:06:58.224Z,2025.00
2018-02-14T13:07:58.206Z,1974.38
2018-02-14T13:08:58.261Z,1980.00
2018-02-14T13:09:58.219Z,1985.63
2018-02-14T13:10:58.215Z,1951.88
2018-02-14T13:11:58.201Z,1935.00
2018-02-14T13:12:58.182Z,1935.00
2018-02-14T13:13:58.176Z,1963.13
2018-02-14T13:14:58.183Z,1912.50
2018-02-14T13:15:58.177Z,1890.00
2018-02-14T13:16:58.184Z,1895.63
2018-02-14T13:17:58.178Z,1884.38